TimeMDT,TemperatureF,Dew PointF,Humidity,Sea Level PressureIn,VisibilityMPH,Wind Direction,Wind SpeedMPH,Gust SpeedMPH,PrecipitationIn,Events,Conditions,WindDirDegrees,DateUTC
12:53 AM,59.0,43.0,55,29.48,10.0,SSE,23.0,29.9,N/A,,Overcast,150,2011-10-06 06:53:00
1:53 AM,57.9,43.0,58,29.47,10.0,SE,21.9,-,N/A,,Overcast,140,2011-10-06 07:53:00
2:53 AM,55.9,39.0,53,29.49,10.0,SE,24.2,40.3,N/A,,Overcast,130,2011-10-06 08:53:00
3:53 AM,55.9,39.0,53,29.45,10.0,ESE,21.9,40.3,N/A,,Overcast,120,2011-10-06 09:53:00
4:53 AM,55.0,39.9,57,29.44,10.0,ESE,26.5,33.4,N/A,,Mostly Cloudy,120,2011-10-06 10:53:00
5:53 AM,53.1,41.0,64,29.44,10.0,SE,23.0,33.4,N/A,,Mostly Cloudy,140,2011-10-06 11:53:00
6:53 AM,54.0,39.9,59,29.41,10.0,SE,28.8,35.7,N/A,,Mostly Cloudy,130,2011-10-06 12:53:00
7:53 AM,50.0,39.0,66,29.43,10.0,WNW,8.1,34.5,N/A,,Overcast,290,2011-10-06 13:53:00
8:08 AM,48.2,39.2,71,29.58,10.0,NW,11.5,-,0.00,Rain,Light Rain,320,2011-10-06 14:08:00
8:48 AM,46.4,39.2,76,29.58,10.0,NW,12.7,-,0.00,Rain,Light Rain,320,2011-10-06 14:48:00
8:53 AM,46.0,39.0,76,29.48,10.0,NNW,11.5,-,0.00,Rain,Light Rain,340,2011-10-06 14:53:00
9:53 AM,44.1,41.0,89,29.51,6.0,North,9.2,-,0.07,Rain,Light Rain,10,2011-10-06 15:53:00
10:53 AM,46.0,41.0,83,29.49,10.0,East,12.7,-,0.00,,Overcast,90,2011-10-06 16:53:00
11:53 AM,46.9,37.0,68,29.51,10.0,SE,23.0,32.2,N/A,,Overcast,130,2011-10-06 17:53:00
12:53 PM,50.0,33.1,52,29.52,10.0,SSE,23.0,32.2,N/A,,Mostly Cloudy,160,2011-10-06 18:53:00
1:53 PM,48.9,36.0,61,29.55,10.0,South,27.6,34.5,N/A,,Mostly Cloudy,170,2011-10-06 19:53:00
2:31 PM,42.8,35.6,76,29.73,7.0,West,32.2,42.6,0.00,Rain,Rain,270,2011-10-06 20:31:00
2:53 PM,41.0,36.0,82,29.65,10.0,NW,11.5,20.7,0.01,Rain,Light Rain,310,2011-10-06 20:53:00
3:51 PM,44.6,35.6,71,29.77,10.0,West,11.5,21.9,0.01,Rain,Light Rain,260,2011-10-06 21:51:00
3:53 PM,44.1,36.0,73,29.68,10.0,WSW,8.1,21.9,0.01,Rain,Light Rain,250,2011-10-06 21:53:00
4:53 PM,45.0,35.1,68,29.70,7.0,NE,15.0,23.0,0.00,Rain,Rain,40,2011-10-06 22:53:00
5:11 PM,44.6,37.4,76,29.79,10.0,NNE,12.7,-,0.01,,Scattered Clouds,20,2011-10-06 23:11:00
5:53 PM,44.6,37.4,76,29.81,10.0,NNE,5.8,-,N/A,,Scattered Clouds,30,2011-10-06 23:53:00
6:53 PM,44.1,37.0,76,29.75,10.0,North,4.6,-,N/A,,Partly Cloudy,10,2011-10-07 00:53:00
7:53 PM,41.0,36.0,82,29.79,10.0,ENE,4.6,-,N/A,,Clear,70,2011-10-07 01:53:00
8:53 PM,41.0,35.1,79,29.83,10.0,SSE,5.8,-,N/A,,Partly Cloudy,150,2011-10-07 02:53:00
9:53 PM,39.0,35.1,86,29.86,10.0,East,4.6,-,N/A,,Clear,90,2011-10-07 03:53:00
10:53 PM,41.0,34.0,76,29.87,10.0,East,8.1,-,N/A,,Mostly Cloudy,100,2011-10-07 04:53:00
11:53 PM,41.0,34.0,76,29.87,10.0,East,8.1,-,N/A,,Overcast,100,2011-10-07 05:53:00